Greer, Ohio
Current Conditions -  °F | °C
As of 7:55 AM on Thursday 23 Oct 2014 (Local Time) from K4I3 Reporting Station
Haze Haze  
Wind Chill: 39°   Ceiling: 300
Heat Index: 43°   Visibility: 3mi
Dew Point: 41°   Wind: 7mph
Humidity: 93%   Direction: 330°NNW
Pressure: 30.21"   Gusts: NA
Location:  40.5315°N, 82.1576°W
Report Text: K4I3 231155Z AUTO 33006KT 3SM BR OVC003 06/05 A3021 RMK AO2
Loading
Personal Weather Stations






























Interactive Weather Map
Tropical Storm Tracking
New forecast layout! Learn more

10-Day Weather Forecast

Advertisements
Track Severe Weather on mobile